Salt Flat, TX (79847)

7:49 AM MDT on April 27, 2015 (GMT -0600)
APRSWXNET | | Change Station
CLOSE
Current Station
Personal Weather Station
Location: Salt Flat, TX
Elevation: 3694 ft
Nearby Weather Stations

Elev 3694 ft 31.73 °N, 104.93 °W | Updated 46 minutes ago

Clear
Clear
40 °F
Feels Like 40 °F
N
0
Wind Variable Wind from NNW
Gusts 2.0 mph

Today
High -- | Low -- °F
--% Chance of Precip.
Yesterday
High -- | Low -- °F
Precip. -- in
6:18 AM 7:37 PM
Waxing Gibbous, 65% visible
Pressure 29.80 in
Visibility 10.0 miles
Clouds Clear
Windchill 40 °F
Dew Point 35 °F
Humidity 82%
Rainfall in
Snow Depth Not available.
UV 0 out of 12
Pollen 8.60 out of 12
Air Quality Not available.
Flu Activity Local Activity
METAR KGDP 271251Z AUTO 20007KT 10SM CLR 05/01 A2988 RMK AO2 SLP089 T00500011

More Conditions Fewer Conditions

Pressure 29.80 in
Visibility 10.0 miles
Clouds Clear
Windchill 40 °F
Dew Point 35 °F
Humidity 82%
Rainfall in
Snow Depth Not available.
UV 0 out of 12
Pollen 8.60 out of 12
Air Quality Not available.
Flu Activity Local Activity
METAR KGDP 271251Z AUTO 20007KT 10SM CLR 05/01 A2988 RMK AO2 SLP089 T00500011

More Conditions Fewer Conditions

10-Day Weather Forecast

Almanac

Astronomy

Apr. 27, 2015 Rise Set
Actual Time
Civil Twilight
Nautical Twilight
Astronomical Twilight
Moon
Length of Visible Light
Length of Day
Tomorrow will be .
, % of the Moon is Illuminated

Today's Extremes

State Highs State Lows

Community

WunderPhotos

Upload Photos

1,817,309 photos uploaded!

WunderBlogs® & News

Nearby

Air Quality

  Air Quality AQ Index Pollutant
Not available.

Snow Depth

Station Depth Elevation

Earthquake Activity

City Distance Mag. Time & Date
Minimum magnitude displayed is 2.5.

Coastal Water Temperatures

Place Temperature

Stations

Nearby Weather Stations

Station Location Temp. Windchill Dew Point Humidity Wind Precip. Elev Updated Type